Time;durP1;ratioP1;P1;durP2;ratioP2;P2;SDS_P1;SDS_P2;PMS_P1;PMS_P2;Temp;Humidity;BMP_temperature;BMP_pressure;BME280_temperature;BME280_humidity;BME280_pressure;Samples;Min_cycle;Max_cycle;Signal;HPM_P1;HPM_P2
2022/07/23 00:01:28;;;;;;;0.00;0.00;;;24.80;41.70;;;;;;5058674;28;20035;-91
2022/07/23 00:03:55;;;;;;;0.00;0.00;;;24.80;41.00;;;;;;5077275;28;20526;-92
2022/07/23 00:06:23;;;;;;;0.00;0.00;;;24.80;40.70;;;;;;5077260;28;20039;-89
2022/07/23 00:08:49;;;;;;;0.00;0.00;;;24.90;41.10;;;;;;5069751;28;20059;-89
2022/07/23 00:11:16;;;;;;;0.00;0.00;;;24.80;41.30;;;;;;5060613;28;20031;-92
2022/07/23 00:13:42;;;;;;;0.00;0.00;;;24.90;41.30;;;;;;5079754;28;20482;-88
2022/07/23 00:16:08;;;;;;;0.00;0.00;;;25.00;40.20;;;;;;5088744;28;20039;-89
2022/07/23 00:18:36;;;;;;;0.00;0.00;;;25.20;40.70;;;;;;5065386;28;20036;-89
2022/07/23 00:21:02;;;;;;;0.00;0.00;;;25.30;44.60;;;;;;5064559;28;20108;-89
2022/07/23 00:23:29;;;;;;;0.00;0.00;;;25.30;42.20;;;;;;5076319;28;20024;-89
2022/07/23 00:25:55;;;;;;;0.00;0.00;;;25.40;40.60;;;;;;5080578;28;20107;-90
2022/07/23 00:28:21;;;;;;;0.00;0.00;;;25.50;40.70;;;;;;5059866;28;20032;-89
2022/07/23 00:30:48;;;;;;;0.00;0.00;;;25.80;39.20;;;;;;5064362;28;20029;-89
2022/07/23 00:33:14;;;;;;;0.00;0.00;;;26.00;39.90;;;;;;5067419;28;20032;-89
2022/07/23 00:35:41;;;;;;;0.00;0.00;;;26.10;41.60;;;;;;5066387;28;20025;-92
2022/07/23 00:38:11;;;;;;;0.00;0.00;;;26.30;39.40;;;;;;5075705;28;20360;-91
2022/07/23 00:40:38;;;;;;;0.00;0.00;;;26.30;39.50;;;;;;5058000;28;20028;-93
2022/07/23 00:43:05;;;;;;;0.00;0.00;;;26.90;38.80;;;;;;5069231;28;20031;-93
2022/07/23 00:45:32;;;;;;;0.00;0.00;;;27.30;38.70;;;;;;5064505;28;20425;-89
2022/07/23 00:47:59;;;;;;;0.00;0.00;;;28.00;37.60;;;;;;5061817;28;20024;-88
2022/07/23 00:50:25;;;;;;;0.00;0.00;;;28.60;36.80;;;;;;5052661;28;20032;-90
2022/07/23 00:52:52;;;;;;;0.00;0.00;;;29.30;36.30;;;;;;5071695;28;20037;-90
2022/07/23 00:55:18;;;;;;;0.00;0.00;;;30.00;35.60;;;;;;5057772;28;20056;-92
2022/07/23 00:57:45;;;;;;;0.00;0.00;;;30.50;34.90;;;;;;5057528;28;20028;-90
2022/07/23 01:00:13;;;;;;;0.00;0.00;;;31.10;34.00;;;;;;5049275;28;20031;-90
2022/07/23 01:02:40;;;;;;;0.00;0.00;;;31.40;32.60;;;;;;5055487;28;20521;-92
2022/07/23 01:05:07;;;;;;;0.32;0.32;;;31.50;31.60;;;;;;5052720;28;20101;-92
2022/07/23 01:07:34;;;;;;;0.00;0.00;;;31.50;35.50;;;;;;5058337;28;20471;-91
2022/07/23 01:10:03;;;;;;;0.00;0.00;;;31.30;34.00;;;;;;5075740;28;20059;-91
2022/07/23 01:12:30;;;;;;;0.00;0.00;;;31.90;33.00;;;;;;5053422;28;20082;-90
2022/07/23 01:14:57;;;;;;;0.00;0.00;;;32.30;32.40;;;;;;5065722;28;20160;-88
2022/07/23 01:17:24;;;;;;;0.00;0.00;;;32.80;33.30;;;;;;5071795;28;20047;-92
2022/07/23 01:19:53;;;;;;;0.00;0.00;;;33.50;31.10;;;;;;5068402;28;20490;-91
2022/07/23 01:22:20;;;;;;;0.00;0.00;;;33.60;32.10;;;;;;5073860;28;20009;-88
2022/07/23 01:24:47;;;;;;;0.00;0.00;;;33.90;30.40;;;;;;5083279;28;20046;-85
2022/07/23 01:27:13;;;;;;;0.00;0.00;;;34.00;30.20;;;;;;5083891;28;20115;-89
2022/07/23 01:29:40;;;;;;;1.00;1.00;;;33.50;31.70;;;;;;5096342;28;20020;-90
2022/07/23 01:32:06;;;;;;;0.00;0.00;;;33.40;31.30;;;;;;5063301;28;20379;-89
2022/07/23 01:34:32;;;;;;;0.00;0.00;;;32.60;33.10;;;;;;5079837;28;20103;-91
2022/07/23 01:36:59;;;;;;;0.00;0.00;;;31.40;33.90;;;;;;5066880;28;20171;-90
2022/07/23 01:39:25;;;;;;;0.00;0.00;;;31.20;34.30;;;;;;5054975;28;20024;-91
2022/07/23 01:41:51;;;;;;;0.00;0.00;;;31.20;33.80;;;;;;5056727;28;20031;-90
2022/07/23 01:44:17;;;;;;;0.00;0.00;;;31.30;32.90;;;;;;5056546;28;20028;-92
2022/07/23 01:46:43;;;;;;;0.65;0.65;;;31.20;32.80;;;;;;5058217;28;20438;-89
2022/07/23 01:49:09;;;;;;;0.00;0.00;;;31.50;32.10;;;;;;5061664;28;20067;-90
2022/07/23 01:51:36;;;;;;;0.00;0.00;;;31.90;32.40;;;;;;5048026;28;20048;-90
2022/07/23 01:54:02;;;;;;;0.25;0.25;;;31.90;33.10;;;;;;5074729;28;20081;-89
2022/07/23 01:56:28;;;;;;;0.00;0.00;;;31.70;33.00;;;;;;5082552;28;20028;-89
2022/07/23 01:58:54;;;;;;;0.00;0.00;;;31.80;34.10;;;;;;5047196;28;20017;-90
2022/07/23 02:01:22;;;;;;;0.00;0.00;;;32.30;32.30;;;;;;5060895;28;20078;-91
2022/07/23 02:03:48;;;;;;;0.00;0.00;;;32.80;30.70;;;;;;5058019;28;20510;-92
2022/07/23 02:06:14;;;;;;;0.00;0.00;;;33.50;29.50;;;;;;5057341;28;20047;-91
2022/07/23 02:08:40;;;;;;;0.00;0.00;;;34.20;29.70;;;;;;5056842;28;20112;-91
2022/07/23 02:11:07;;;;;;;0.00;0.00;;;33.20;29.90;;;;;;5056883;28;20081;-91
2022/07/23 02:13:33;;;;;;;0.00;0.00;;;33.50;29.70;;;;;;5076767;28;20016;-90
2022/07/23 02:15:59;;;;;;;0.00;0.00;;;34.40;29.10;;;;;;5059954;28;20033;-91
2022/07/23 02:18:25;;;;;;;0.10;0.10;;;35.40;28.40;;;;;;5081830;28;20047;-89
2022/07/23 02:20:52;;;;;;;0.00;0.00;;;36.30;27.40;;;;;;5074310;28;20028;-89
2022/07/23 02:23:19;;;;;;;1.92;1.80;;;36.80;26.90;;;;;;5068740;28;20031;-89
2022/07/23 02:25:45;;;;;;;0.00;0.00;;;37.40;26.60;;;;;;5080774;28;20051;-91
2022/07/23 02:28:11;;;;;;;0.00;0.00;;;37.60;27.30;;;;;;5059264;28;20036;-91
2022/07/23 02:30:38;;;;;;;0.00;0.00;;;37.70;26.50;;;;;;5079093;28;20025;-93
2022/07/23 02:33:04;;;;;;;0.00;0.00;;;38.80;26.00;;;;;;5059775;28;20044;-90
2022/07/23 02:35:30;;;;;;;0.20;0.20;;;39.00;26.00;;;;;;5082691;28;20054;-90
2022/07/23 02:37:56;;;;;;;0.00;0.00;;;39.10;25.90;;;;;;5078057;28;20032;-91
2022/07/23 02:40:22;;;;;;;0.00;0.00;;;37.90;26.30;;;;;;5070516;28;20522;-90
2022/07/23 02:42:48;;;;;;;0.00;0.00;;;38.20;26.70;;;;;;5067107;28;20109;-92
2022/07/23 02:45:15;;;;;;;0.00;0.00;;;39.00;26.40;;;;;;5097179;28;20039;-92
2022/07/23 02:47:42;;;;;;;0.00;0.00;;;40.10;25.40;;;;;;5077632;28;20051;-90
2022/07/23 02:50:29;;;;;;;0.03;0.00;;;40.20;25.00;;;;;;5074014;28;20013;-92
2022/07/23 02:52:57;;;;;;;0.00;0.00;;;40.50;25.00;;;;;;5077517;28;20074;-91
2022/07/23 02:55:27;;;;;;;0.00;0.00;;;40.50;24.70;;;;;;5100341;28;20028;-92
2022/07/23 02:57:53;;;;;;;0.00;0.00;;;41.10;24.00;;;;;;5078465;28;20028;-93
2022/07/23 03:00:19;;;;;;;0.00;0.00;;;41.30;24.00;;;;;;5066485;28;20371;-93
2022/07/23 03:02:45;;;;;;;0.00;0.00;;;41.00;23.30;;;;;;5077930;28;20374;-92
2022/07/23 03:05:11;;;;;;;0.10;0.10;;;40.70;23.80;;;;;;5065218;28;20056;-90
2022/07/23 03:07:37;;;;;;;10.65;9.57;;;40.20;24.50;;;;;;5068155;28;20047;-91
2022/07/23 03:10:04;;;;;;;6.30;4.38;;;40.00;25.00;;;;;;5074984;28;20024;-90
2022/07/23 03:12:30;;;;;;;0.00;0.00;;;40.00;24.50;;;;;;5075984;28;20383;-91
2022/07/23 03:14:56;;;;;;;0.20;0.20;;;39.60;24.70;;;;;;5072072;28;20028;-91
2022/07/23 03:17:22;;;;;;;0.10;0.10;;;40.00;24.70;;;;;;5087431;28;20020;-91
2022/07/23 03:19:48;;;;;;;0.00;0.00;;;39.30;25.30;;;;;;5082187;28;20081;-91
2022/07/23 03:22:14;;;;;;;0.10;0.10;;;39.40;25.90;;;;;;5073498;28;20016;-92
2022/07/23 03:24:55;;;;;;;0.00;0.00;;;39.70;25.30;;;;;;5090310;28;20456;-92
2022/07/23 03:27:27;;;;;;;0.10;0.10;;;40.60;24.30;;;;;;5074372;28;20032;-88
2022/07/23 03:29:56;;;;;;;0.00;0.00;;;41.00;24.40;;;;;;5080845;28;20079;-92
2022/07/23 03:32:23;;;;;;;0.00;0.00;;;40.90;24.70;;;;;;5068508;28;20039;-91
2022/07/23 03:34:51;;;;;;;0.55;0.55;;;40.60;24.50;;;;;;5076661;28;20101;-91
2022/07/23 03:37:18;;;;;;;0.00;0.00;;;39.20;25.50;;;;;;5063068;28;20020;-90
2022/07/23 03:39:44;;;;;;;0.22;0.22;;;38.90;25.80;;;;;;5060186;28;20055;-93
2022/07/23 03:42:10;;;;;;;0.00;0.00;;;38.60;25.40;;;;;;5078218;28;20479;-91
2022/07/23 03:44:37;;;;;;;0.00;0.00;;;38.90;26.00;;;;;;5089979;28;20027;-92
2022/07/23 03:47:04;;;;;;;0.00;0.00;;;39.80;25.30;;;;;;5073139;28;20094;-91
2022/07/23 03:49:31;;;;;;;0.00;0.00;;;39.40;24.80;;;;;;5092782;28;20024;-91
2022/07/23 03:51:58;;;;;;;0.00;0.00;;;39.10;25.10;;;;;;5068205;28;20024;-92
2022/07/23 03:54:24;;;;;;;4.50;1.48;;;38.90;25.70;;;;;;5082956;28;20032;-92
2022/07/23 03:56:51;;;;;;;7.60;7.22;;;38.50;26.20;;;;;;5086706;28;20059;-91
2022/07/23 03:59:17;;;;;;;0.00;0.00;;;38.10;26.20;;;;;;5076189;28;20020;-90
2022/07/23 04:01:43;;;;;;;0.00;0.00;;;37.70;26.10;;;;;;5077686;28;20044;-90
2022/07/23 04:04:10;;;;;;;0.00;0.00;;;37.10;26.40;;;;;;5062791;28;20474;-91
2022/07/23 04:06:36;;;;;;;0.00;0.00;;;36.80;26.50;;;;;;5091131;28;20441;-92
2022/07/23 04:09:02;;;;;;;0.00;0.00;;;36.20;27.40;;;;;;5086671;28;20060;-91
2022/07/23 04:11:29;;;;;;;0.00;0.00;;;35.30;28.30;;;;;;5085015;28;20024;-90
2022/07/23 04:13:55;;;;;;;0.90;0.90;;;34.60;28.80;;;;;;5068963;28;20025;-89
2022/07/23 04:16:21;;;;;;;0.00;0.00;;;34.90;28.50;;;;;;5086093;28;20020;-91
2022/07/23 04:18:47;;;;;;;0.00;0.00;;;35.10;28.50;;;;;;5067359;28;20020;-92
2022/07/23 04:21:13;;;;;;;0.10;0.10;;;35.20;28.20;;;;;;5089435;28;20050;-91
2022/07/23 04:23:39;;;;;;;0.00;0.00;;;34.50;28.50;;;;;;5076776;28;20029;-91
2022/07/23 04:26:05;;;;;;;0.60;0.60;;;34.30;29.20;;;;;;5073300;28;20032;-90
2022/07/23 04:28:31;;;;;;;0.05;0.03;;;34.00;29.50;;;;;;5092753;28;20033;-93
2022/07/23 04:30:58;;;;;;;0.10;0.00;;;33.80;29.40;;;;;;5076696;28;20037;-92
2022/07/23 04:33:25;;;;;;;0.45;0.45;;;33.80;29.20;;;;;;5059613;28;20020;-90
2022/07/23 04:35:52;;;;;;;0.28;0.28;;;34.00;29.80;;;;;;5061176;28;20016;-91
2022/07/23 04:38:18;;;;;;;0.00;0.00;;;34.10;29.80;;;;;;5067597;28;20343;-91
2022/07/23 04:40:44;;;;;;;0.00;0.00;;;33.80;29.80;;;;;;5072621;28;20384;-89
2022/07/23 04:43:12;;;;;;;0.00;0.00;;;34.00;29.80;;;;;;5061769;28;20054;-93
2022/07/23 04:45:38;;;;;;;0.35;0.10;;;34.30;29.20;;;;;;5079153;28;20044;-89
2022/07/23 04:48:14;;;;;;;0.00;0.00;;;34.40;29.20;;;;;;5072384;28;20044;-90
2022/07/23 04:50:40;;;;;;;1.25;0.55;;;34.10;29.50;;;;;;5068462;28;20036;-92
2022/07/23 04:53:07;;;;;;;0.00;0.00;;;33.90;30.00;;;;;;5069335;28;20035;-90
2022/07/23 04:55:33;;;;;;;0.00;0.00;;;33.80;30.60;;;;;;5073856;28;20024;-91
2022/07/23 04:58:00;;;;;;;0.00;0.00;;;34.10;30.00;;;;;;5083525;28;20031;-90
2022/07/23 05:00:26;;;;;;;0.15;0.15;;;34.10;29.90;;;;;;5087340;28;20111;-89
2022/07/23 05:02:52;;;;;;;5.40;0.70;;;34.30;29.60;;;;;;5071998;28;20426;-91
2022/07/23 05:05:26;;;;;;;3.95;3.83;;;34.20;30.00;;;;;;5080804;28;20035;-90
2022/07/23 05:07:52;;;;;;;0.00;0.00;;;34.20;29.20;;;;;;5063501;28;20111;-89
2022/07/23 05:10:18;;;;;;;0.00;0.00;;;33.90;29.90;;;;;;5044059;28;20036;-90
2022/07/23 05:12:44;;;;;;;0.20;0.20;;;34.10;29.90;;;;;;5065284;28;20035;-90
2022/07/23 05:15:10;;;;;;;0.20;0.20;;;34.40;30.00;;;;;;5079464;28;20016;-89
2022/07/23 05:17:36;;;;;;;0.70;0.70;;;34.50;30.00;;;;;;5081139;28;20020;-90
2022/07/23 05:20:03;;;;;;;2.80;2.67;;;34.60;29.70;;;;;;5078270;28;20024;-89
2022/07/23 05:22:29;;;;;;;0.00;0.00;;;34.50;28.90;;;;;;5095524;28;20029;-89
2022/07/23 05:24:56;;;;;;;0.85;0.85;;;34.60;29.30;;;;;;5098624;28;20024;-91
2022/07/23 05:27:22;;;;;;;9.70;9.00;;;34.70;29.40;;;;;;5109623;28;20101;-91
2022/07/23 05:29:48;;;;;;;0.00;0.00;;;34.60;29.60;;;;;;5089566;28;20095;-90
2022/07/23 05:32:14;;;;;;;0.00;0.00;;;34.60;28.90;;;;;;5087699;28;20055;-89
2022/07/23 05:34:40;;;;;;;0.00;0.00;;;34.80;29.30;;;;;;5097446;28;20028;-89
2022/07/23 05:37:06;;;;;;;0.35;0.35;;;34.90;28.70;;;;;;5095690;28;20036;-91
2022/07/23 05:39:32;;;;;;;0.00;0.00;;;34.70;28.70;;;;;;5083512;28;20012;-93
2022/07/23 05:41:59;;;;;;;1.17;1.00;;;34.80;29.10;;;;;;5098335;28;20082;-90
2022/07/23 05:44:27;;;;;;;0.00;0.00;;;35.00;29.50;;;;;;5083317;28;20067;-90
2022/07/23 05:46:53;;;;;;;0.00;0.00;;;34.90;29.80;;;;;;5096994;28;20079;-91
2022/07/23 05:49:20;;;;;;;0.00;0.00;;;34.90;29.80;;;;;;5091206;28;20026;-91
2022/07/23 05:51:46;;;;;;;9.65;8.88;;;34.80;29.80;;;;;;5078615;28;20047;-91
2022/07/23 05:54:13;;;;;;;0.22;0.20;;;34.80;29.10;;;;;;5085762;28;20071;-90
2022/07/23 05:56:39;;;;;;;0.00;0.00;;;34.90;29.60;;;;;;5049057;28;20021;-90
2022/07/23 05:59:06;;;;;;;0.28;0.28;;;34.70;30.00;;;;;;5092954;28;20028;-90
2022/07/23 06:01:32;;;;;;;0.77;0.73;;;34.80;30.20;;;;;;5089345;28;20077;-90
2022/07/23 06:04:14;;;;;;;0.00;0.00;;;34.70;31.00;;;;;;5066870;28;20082;-91
2022/07/23 06:06:41;;;;;;;0.30;0.30;;;34.50;31.60;;;;;;5046611;28;20029;-91
2022/07/23 06:09:07;;;;;;;0.00;0.00;;;34.70;32.80;;;;;;5057601;28;20043;-89
2022/07/23 06:11:33;;;;;;;0.00;0.00;;;34.90;33.10;;;;;;5094977;28;20021;-90
2022/07/23 06:13:59;;;;;;;0.00;0.00;;;35.00;31.60;;;;;;5081037;28;20031;-88
2022/07/23 06:16:25;;;;;;;0.40;0.40;;;35.10;30.70;;;;;;5073494;28;20020;-91
2022/07/23 06:18:51;;;;;;;0.08;0.05;;;34.80;32.30;;;;;;5065774;28;20111;-91
2022/07/23 06:21:18;;;;;;;0.75;0.75;;;34.70;31.80;;;;;;5068243;28;20029;-89
2022/07/23 06:23:44;;;;;;;1.20;1.20;;;34.80;31.10;;;;;;5066661;28;20400;-91
2022/07/23 06:26:10;;;;;;;0.00;0.00;;;34.80;31.80;;;;;;5088512;28;20467;-91
2022/07/23 06:28:36;;;;;;;32.60;14.95;;;34.90;31.70;;;;;;5065935;28;20478;-93
2022/07/23 06:31:02;;;;;;;0.10;0.10;;;34.80;32.50;;;;;;5069295;28;20034;-91
2022/07/23 06:33:31;;;;;;;0.40;0.40;;;35.00;32.80;;;;;;5060008;28;20095;-90
2022/07/23 06:35:57;;;;;;;0.15;0.15;;;34.90;30.40;;;;;;5083955;28;20020;-93
2022/07/23 06:38:26;;;;;;;0.63;0.32;;;34.90;30.30;;;;;;5080479;28;20116;-90
2022/07/23 06:40:52;;;;;;;0.15;0.00;;;35.00;30.90;;;;;;5085503;28;20110;-90
2022/07/23 06:43:18;;;;;;;1.65;0.90;;;35.00;31.70;;;;;;5082554;28;20031;-92
2022/07/23 06:45:44;;;;;;;1.08;0.10;;;34.70;32.00;;;;;;5073656;28;20130;-90
2022/07/23 06:48:10;;;;;;;3.50;0.77;;;34.50;32.30;;;;;;5097256;28;20028;-89
2022/07/23 06:50:38;;;;;;;4.28;3.88;;;34.50;31.60;;;;;;5061854;28;20032;-89
2022/07/23 06:53:04;;;;;;;0.00;0.00;;;34.60;32.00;;;;;;5060470;28;20110;-89
2022/07/23 06:55:31;;;;;;;0.82;0.82;;;34.80;31.70;;;;;;5082873;28;20025;-89
2022/07/23 06:57:58;;;;;;;0.03;0.03;;;35.10;30.10;;;;;;5084365;28;20025;-90
2022/07/23 07:00:26;;;;;;;1.30;1.20;;;35.20;30.10;;;;;;5071340;28;20024;-90
2022/07/23 07:02:54;;;;;;;0.00;0.00;;;35.40;30.00;;;;;;5062192;28;20543;-89
2022/07/23 07:05:20;;;;;;;0.00;0.00;;;35.20;30.20;;;;;;5057333;28;20044;-90
2022/07/23 07:07:46;;;;;;;0.10;0.10;;;35.30;30.00;;;;;;5051762;28;20029;-90
2022/07/23 07:10:12;;;;;;;0.55;0.38;;;35.50;30.00;;;;;;5043068;28;20024;-90
2022/07/23 07:12:38;;;;;;;0.00;0.00;;;35.60;29.80;;;;;;5076028;28;20039;-90
2022/07/23 07:15:05;;;;;;;0.00;0.00;;;35.80;29.40;;;;;;5066578;28;20279;-91
2022/07/23 07:17:31;;;;;;;0.55;0.55;;;35.80;29.20;;;;;;5075964;28;20038;-93
2022/07/23 07:19:57;;;;;;;0.20;0.20;;;36.10;29.20;;;;;;5066362;28;20056;-92
2022/07/23 07:22:23;;;;;;;0.00;0.00;;;36.10;29.10;;;;;;5074342;28;20024;-92
2022/07/23 07:24:49;;;;;;;7.65;7.03;;;36.00;30.00;;;;;;5073969;28;20020;-89
2022/07/23 07:27:16;;;;;;;0.00;0.00;;;35.80;30.30;;;;;;5080114;28;20066;-90
2022/07/23 07:29:53;;;;;;;0.00;0.00;;;35.90;30.00;;;;;;5107820;28;20039;-87
2022/07/23 07:32:19;;;;;;;0.00;0.00;;;35.80;30.70;;;;;;5096191;28;20008;-88
2022/07/23 07:34:46;;;;;;;0.10;0.10;;;35.80;30.60;;;;;;5080461;28;20024;-92
2022/07/23 07:37:12;;;;;;;0.00;0.00;;;36.00;30.30;;;;;;5064902;28;20029;-91
2022/07/23 07:39:38;;;;;;;1.33;1.15;;;36.20;30.00;;;;;;5050773;28;20024;-90
2022/07/23 07:42:04;;;;;;;0.63;0.63;;;35.90;29.00;;;;;;5085249;28;20016;-91
2022/07/23 07:44:30;;;;;;;0.30;0.30;;;35.80;29.00;;;;;;5059802;28;20466;-91
2022/07/23 07:46:58;;;;;;;0.00;0.00;;;36.00;29.00;;;;;;5087632;28;20056;-90
2022/07/23 07:49:26;;;;;;;0.00;0.00;;;36.20;29.00;;;;;;5091596;28;20020;-91
2022/07/23 07:51:52;;;;;;;4.80;0.32;;;36.40;28.60;;;;;;5063535;28;20058;-90
2022/07/23 07:54:18;;;;;;;0.00;0.00;;;36.30;28.90;;;;;;5079648;28;20013;-92
2022/07/23 07:56:44;;;;;;;0.15;0.15;;;36.20;28.90;;;;;;5061423;28;20032;-90
2022/07/23 07:59:11;;;;;;;1.15;0.63;;;36.00;28.70;;;;;;5080271;28;20043;-90
2022/07/23 08:01:37;;;;;;;0.00;0.00;;;36.10;28.90;;;;;;5077754;28;20025;-90
2022/07/23 08:04:03;;;;;;;0.20;0.17;;;36.00;28.40;;;;;;5063058;28;20020;-91
2022/07/23 08:06:30;;;;;;;0.20;0.20;;;36.00;28.60;;;;;;5093506;28;20032;-91
2022/07/23 08:08:57;;;;;;;0.22;0.17;;;36.30;28.80;;;;;;5082439;28;20016;-90
2022/07/23 08:11:23;;;;;;;0.03;0.03;;;36.50;28.40;;;;;;5072088;28;20489;-90
2022/07/23 08:13:49;;;;;;;0.08;0.08;;;36.50;28.50;;;;;;5077742;28;20028;-91
2022/07/23 08:16:15;;;;;;;17.90;5.25;;;36.20;28.60;;;;;;5065327;28;20024;-91
2022/07/23 08:18:41;;;;;;;1.90;1.27;;;36.50;28.90;;;;;;5071211;28;20027;-90
2022/07/23 08:21:07;;;;;;;3.20;0.75;;;36.80;27.60;;;;;;5084010;28;20043;-88
2022/07/23 08:23:34;;;;;;;0.70;0.60;;;36.80;27.90;;;;;;5090878;28;20478;-89
2022/07/23 08:26:00;;;;;;;1.35;1.23;;;36.30;27.30;;;;;;5071904;28;20028;-92
2022/07/23 08:28:28;;;;;;;0.03;0.03;;;36.20;28.20;;;;;;5064534;28;20023;-90
2022/07/23 08:30:54;;;;;;;0.00;0.00;;;36.40;28.50;;;;;;5064077;28;20074;-90
2022/07/23 08:33:20;;;;;;;1.77;0.68;;;36.70;27.20;;;;;;5080067;28;20448;-90
2022/07/23 08:35:50;;;;;;;0.65;0.57;;;36.80;28.20;;;;;;5076142;28;20046;-89
2022/07/23 08:38:18;;;;;;;0.05;0.05;;;36.60;28.10;;;;;;5073872;28;20024;-89
2022/07/23 08:40:49;;;;;;;3.92;1.25;;;36.60;28.90;;;;;;5084244;28;20363;-90
2022/07/23 08:43:18;;;;;;;0.08;0.08;;;36.30;28.60;;;;;;5078617;28;20031;-90
2022/07/23 08:45:48;;;;;;;0.20;0.17;;;36.30;28.20;;;;;;5101457;28;20048;-91
2022/07/23 08:48:17;;;;;;;0.10;0.10;;;36.50;28.40;;;;;;5079926;28;20028;-91
2022/07/23 08:50:46;;;;;;;0.00;0.00;;;36.60;28.70;;;;;;5091041;28;20032;-91
2022/07/23 08:53:12;;;;;;;0.10;0.10;;;37.00;28.60;;;;;;5077698;28;20032;-89
2022/07/23 08:55:38;;;;;;;0.32;0.32;;;37.40;27.70;;;;;;5087645;28;20020;-88
2022/07/23 08:58:05;;;;;;;1.02;0.98;;;37.60;27.40;;;;;;5091425;28;20020;-93
2022/07/23 09:00:31;;;;;;;10.05;9.63;;;37.80;28.00;;;;;;5085726;28;20040;-93
2022/07/23 09:02:57;;;;;;;0.00;0.00;;;38.00;27.40;;;;;;5088634;28;20426;-93
2022/07/23 09:05:27;;;;;;;0.00;0.00;;;38.20;27.00;;;;;;5097177;28;20460;-94
2022/07/23 09:08:07;;;;;;;3.88;0.93;;;38.30;27.50;;;;;;5062551;28;20463;-92
2022/07/23 09:10:47;;;;;;;0.15;0.15;;;37.90;25.80;;;;;;5068090;28;20040;-90
2022/07/23 09:13:24;;;;;;;0.30;0.30;;;37.80;25.70;;;;;;5063861;28;20031;-90
2022/07/23 09:15:52;;;;;;;0.00;0.00;;;37.70;26.30;;;;;;5078927;28;20046;-90
2022/07/23 09:18:46;;;;;;;0.70;0.70;;;37.80;26.10;;;;;;5077998;28;20024;-91
2022/07/23 09:21:23;;;;;;;0.05;0.05;;;37.50;26.60;;;;;;5064405;28;20028;-90
2022/07/23 09:23:56;;;;;;;0.00;0.00;;;37.20;26.70;;;;;;5063271;28;20387;-90
2022/07/23 09:26:40;;;;;;;0.00;0.00;;;37.50;27.00;;;;;;5080735;28;20028;-91
2022/07/23 09:29:19;;;;;;;0.00;0.00;;;37.70;26.70;;;;;;5057444;28;20510;-90
2022/07/23 09:31:55;;;;;;;0.00;0.00;;;37.90;26.10;;;;;;5047822;28;20028;-90
2022/07/23 09:34:30;;;;;;;0.00;0.00;;;38.00;26.90;;;;;;5062934;28;20450;-90
2022/07/23 09:37:14;;;;;;;0.00;0.00;;;38.30;25.60;;;;;;5073231;28;20474;-90
2022/07/23 09:39:42;;;;;;;0.00;0.00;;;38.20;25.20;;;;;;5070357;28;20123;-91
2022/07/23 09:42:20;;;;;;;0.65;0.13;;;37.90;25.50;;;;;;5065588;28;20073;-93
2022/07/23 09:44:48;;;;;;;0.28;0.28;;;37.70;26.20;;;;;;5057912;28;20040;-93
2022/07/23 09:47:21;;;;;;;0.10;0.10;;;37.90;26.50;;;;;;5074348;28;20032;-89
2022/07/23 09:50:13;;;;;;;0.13;0.13;;;37.90;25.30;;;;;;5044718;28;20033;-92
2022/07/23 09:52:50;;;;;;;0.00;0.00;;;37.60;25.00;;;;;;5065557;28;20107;-91
2022/07/23 09:55:19;;;;;;;0.40;0.22;;;37.50;25.20;;;;;;5054295;28;20024;-93
2022/07/23 09:57:54;;;;;;;0.08;0.08;;;37.70;25.80;;;;;;5061003;28;20375;-92
2022/07/23 10:00:20;;;;;;;0.95;0.95;;;37.90;25.40;;;;;;5074660;28;20023;-90
2022/07/23 10:02:47;;;;;;;0.75;0.75;;;38.10;24.70;;;;;;5078678;28;20040;-92
2022/07/23 10:05:13;;;;;;;9.50;8.98;;;38.00;24.00;;;;;;5065117;28;20020;-92
2022/07/23 10:07:40;;;;;;;0.00;0.00;;;37.90;24.50;;;;;;5064293;28;20029;-91
2022/07/23 10:10:08;;;;;;;0.00;0.00;;;37.70;23.50;;;;;;5054782;28;20037;-90
2022/07/23 10:15:11;;;;;;;0.20;0.17;;;38.00;22.50;;;;;;5085603;28;20028;-89
2022/07/23 10:17:37;;;;;;;0.63;0.43;;;37.70;23.20;;;;;;5082647;28;20021;-91
2022/07/23 10:20:05;;;;;;;0.63;0.63;;;37.50;23.70;;;;;;5074950;28;20045;-89
2022/07/23 10:22:37;;;;;;;0.00;0.00;;;37.50;23.90;;;;;;5085693;28;20030;-91
2022/07/23 10:25:27;;;;;;;0.00;0.00;;;37.40;23.50;;;;;;5061657;28;20049;-89
2022/07/23 10:28:20;;;;;;;0.00;0.00;;;37.40;23.10;;;;;;5078934;28;20111;-88
2022/07/23 10:31:16;;;;;;;0.20;0.20;;;37.30;23.60;;;;;;5066840;28;20025;-92
2022/07/23 10:34:09;;;;;;;0.00;0.00;;;37.30;24.80;;;;;;5075729;28;20029;-92
2022/07/23 10:37:37;;;;;;;0.00;0.00;;;37.50;25.40;;;;;;5080284;28;20024;-90
2022/07/23 10:40:14;;;;;;;0.00;0.00;;;37.70;24.80;;;;;;4993871;28;20127;-89
2022/07/23 10:42:51;;;;;;;0.00;0.00;;;37.80;25.10;;;;;;5077145;28;20100;-90
2022/07/23 10:45:37;;;;;;;0.00;0.00;;;37.60;24.50;;;;;;5063551;28;20049;-89
2022/07/23 10:48:18;;;;;;;1.63;1.08;;;37.40;25.00;;;;;;5067299;28;20021;-89
2022/07/23 10:51:04;;;;;;;0.00;0.00;;;37.20;24.70;;;;;;5075419;28;20044;-92
2022/07/23 10:53:50;;;;;;;0.00;0.00;;;37.20;24.90;;;;;;5064162;28;20055;-90
2022/07/23 10:56:16;;;;;;;0.22;0.22;;;37.30;24.30;;;;;;5057924;28;20037;-92
2022/07/23 10:58:48;;;;;;;0.00;0.00;;;37.50;24.40;;;;;;5069071;28;20025;-90
2022/07/23 11:01:38;;;;;;;1.40;1.30;;;37.40;25.20;;;;;;5068170;28;20031;-91
2022/07/23 11:04:08;;;;;;;0.00;0.00;;;37.20;25.30;;;;;;5047033;28;20025;-91
2022/07/23 11:06:50;;;;;;;0.20;0.20;;;37.20;24.80;;;;;;5059291;28;20048;-91
2022/07/23 11:09:32;;;;;;;0.00;0.00;;;37.30;24.90;;;;;;5056163;28;20039;-90
2022/07/23 11:12:13;;;;;;;0.00;0.00;;;37.20;24.60;;;;;;5043504;28;20451;-92
2022/07/23 11:15:02;;;;;;;0.00;0.00;;;37.20;25.50;;;;;;5055594;28;20468;-91
2022/07/23 11:17:30;;;;;;;0.00;0.00;;;37.40;24.50;;;;;;5058771;28;20040;-94
2022/07/23 11:20:17;;;;;;;0.00;0.00;;;37.50;24.20;;;;;;5058908;28;20111;-91
2022/07/23 11:22:44;;;;;;;0.00;0.00;;;37.50;23.80;;;;;;5067891;28;20029;-92
2022/07/23 11:25:25;;;;;;;0.15;0.15;;;37.50;23.30;;;;;;5086404;28;20039;-89
2022/07/23 11:27:52;;;;;;;0.00;0.00;;;37.40;24.30;;;;;;5072719;28;20020;-90
2022/07/23 11:30:28;;;;;;;0.00;0.00;;;37.20;24.90;;;;;;5073685;28;20119;-91
2022/07/23 11:33:14;;;;;;;0.00;0.00;;;37.00;24.90;;;;;;5070179;28;20029;-92
2022/07/23 11:35:42;;;;;;;0.00;0.00;;;37.10;24.80;;;;;;5068877;28;20115;-92
2022/07/23 11:38:21;;;;;;;0.55;0.45;;;37.20;25.10;;;;;;5060918;28;20031;-91
2022/07/23 11:40:51;;;;;;;0.10;0.10;;;37.20;24.90;;;;;;5046173;28;20032;-91
2022/07/23 11:43:18;;;;;;;0.00;0.00;;;37.10;24.70;;;;;;5057709;28;20021;-92
2022/07/23 11:45:46;;;;;;;0.00;0.00;;;37.00;24.20;;;;;;5058231;28;20065;-89
2022/07/23 11:48:20;;;;;;;2.60;2.50;;;37.00;24.60;;;;;;5056934;28;20087;-90
2022/07/23 11:50:47;;;;;;;0.00;0.00;;;36.90;23.70;;;;;;5060223;28;20033;-92
2022/07/23 11:53:13;;;;;;;0.13;0.10;;;36.90;24.30;;;;;;5056379;28;20029;-92
2022/07/23 11:55:39;;;;;;;0.00;0.00;;;37.00;24.40;;;;;;5066697;28;20078;-91
2022/07/23 11:58:06;;;;;;;0.00;0.00;;;37.10;24.50;;;;;;5055180;28;20059;-90
2022/07/23 12:00:35;;;;;;;0.00;0.00;;;36.90;25.30;;;;;;5065107;28;20116;-90
2022/07/23 12:03:03;;;;;;;0.00;0.00;;;36.90;25.50;;;;;;5080462;28;20084;-90
2022/07/23 12:05:32;;;;;;;0.00;0.00;;;37.00;25.20;;;;;;5084246;28;20021;-91
2022/07/23 12:08:00;;;;;;;0.00;0.00;;;36.90;25.60;;;;;;5082749;28;20017;-90
2022/07/23 12:10:28;;;;;;;0.00;0.00;;;36.90;25.50;;;;;;5073400;28;20097;-92
2022/07/23 12:12:55;;;;;;;0.00;0.00;;;36.90;26.00;;;;;;5037262;28;20128;-93
2022/07/23 12:15:30;;;;;;;0.20;0.20;;;36.90;26.40;;;;;;5057850;28;20032;-92
2022/07/23 12:17:56;;;;;;;0.00;0.00;;;37.00;26.50;;;;;;5062630;28;20023;-90
2022/07/23 12:20:29;;;;;;;0.00;0.00;;;37.10;26.40;;;;;;5058661;28;20082;-91
2022/07/23 12:23:01;;;;;;;0.00;0.00;;;36.90;27.30;;;;;;5057564;28;20376;-92
2022/07/23 12:25:32;;;;;;;0.00;0.00;;;36.70;27.60;;;;;;5056334;28;20032;-93
2022/07/23 12:28:17;;;;;;;0.10;0.10;;;36.70;27.10;;;;;;5060106;28;20494;-91
2022/07/23 12:30:53;;;;;;;0.00;0.00;;;36.60;27.60;;;;;;5057193;28;20036;-92
2022/07/23 12:33:32;;;;;;;0.00;0.00;;;36.70;28.10;;;;;;5045905;28;20086;-90
2022/07/23 12:36:03;;;;;;;0.00;0.00;;;36.60;28.20;;;;;;5067465;28;20025;-89
2022/07/23 12:38:44;;;;;;;0.00;0.00;;;36.70;27.80;;;;;;5071776;28;20048;-91
2022/07/23 12:41:10;;;;;;;0.00;0.00;;;36.70;28.00;;;;;;5062126;28;20036;-93
2022/07/23 12:43:38;;;;;;;0.00;0.00;;;36.80;27.80;;;;;;5058719;28;20059;-93
2022/07/23 12:46:34;;;;;;;0.45;0.32;;;36.80;28.10;;;;;;5057435;28;20097;-93
2022/07/23 12:49:03;;;;;;;0.00;0.00;;;36.80;28.10;;;;;;5061120;28;20396;-92
2022/07/23 12:51:39;;;;;;;0.00;0.00;;;36.70;27.80;;;;;;5080786;28;20037;-93
2022/07/23 12:54:10;;;;;;;0.10;0.10;;;36.60;27.90;;;;;;5051521;28;20025;-94
2022/07/23 12:56:38;;;;;;;0.00;0.00;;;36.50;28.10;;;;;;5078236;28;20035;-92
2022/07/23 12:59:15;;;;;;;0.10;0.10;;;36.50;28.20;;;;;;5054821;28;20032;-92